createdAt,value
2023-04-15T00:00:57.756Z,95.00
2023-04-15T00:03:25.158Z,94.93
2023-04-15T00:06:18.889Z,96.81
2023-04-15T00:09:08.580Z,96.57
2023-04-15T00:12:07.260Z,97.21
2023-04-15T00:14:49.916Z,96.82
2023-04-15T00:17:38.429Z,95.56
2023-04-15T00:20:30.738Z,95.90
2023-04-15T00:23:10.715Z,96.81
2023-04-15T00:25:37.605Z,96.96
2023-04-15T00:28:04.642Z,95.79
2023-04-15T00:30:31.779Z,95.71
2023-04-15T00:32:58.720Z,97.37
2023-04-15T00:35:25.953Z,97.67
2023-04-15T00:37:52.877Z,96.79
2023-04-15T00:40:21.287Z,96.48
2023-04-15T00:42:48.457Z,96.43
2023-04-15T00:45:15.962Z,96.83
2023-04-15T00:47:44.811Z,98.06
2023-04-15T00:50:12.950Z,99.05
2023-04-15T00:52:40.983Z,98.39
2023-04-15T00:55:09.063Z,98.73
2023-04-15T00:57:36.765Z,98.08
2023-04-15T01:00:05.841Z,99.17
2023-04-15T01:02:33.819Z,99.85
2023-04-15T01:05:00.864Z,98.81
2023-04-15T01:07:57.948Z,98.34
2023-04-15T01:10:48.154Z,97.84
2023-04-15T01:13:40.683Z,97.74
2023-04-15T01:16:30.578Z,97.14
2023-04-15T01:19:17.386Z,97.32
2023-04-15T01:22:07.069Z,96.49
2023-04-15T01:24:36.114Z,96.16
2023-04-15T01:27:03.646Z,96.05
2023-04-15T01:29:32.034Z,96.01
2023-04-15T01:31:59.280Z,95.44
2023-04-15T01:34:26.232Z,95.98
2023-04-15T01:36:53.098Z,95.65
2023-04-15T01:39:20.061Z,95.13
2023-04-15T01:41:46.957Z,95.45
2023-04-15T01:44:13.916Z,95.87
2023-04-15T01:46:40.875Z,96.30
2023-04-15T01:49:09.212Z,96.32
2023-04-15T01:51:36.151Z,95.74
2023-04-15T01:54:03.103Z,96.84
2023-04-15T01:56:30.088Z,96.90
2023-04-15T01:58:57.199Z,96.29
2023-04-15T02:01:24.190Z,95.78
2023-04-15T02:03:51.156Z,97.03
2023-04-15T02:06:18.573Z,99.06
2023-04-15T02:08:45.515Z,99.52
2023-04-15T02:11:12.399Z,100.00
2023-04-15T02:13:39.343Z,100.00
2023-04-15T02:16:16.866Z,100.00
2023-04-15T02:18:45.666Z,100.00
2023-04-15T02:21:12.844Z,100.00
2023-04-15T02:23:39.751Z,99.95
2023-04-15T02:26:06.899Z,99.61
2023-04-15T02:28:33.816Z,99.37
2023-04-15T02:31:01.931Z,100.00
2023-04-15T02:33:28.868Z,99.08
2023-04-15T02:35:55.862Z,99.08
2023-04-15T02:38:22.821Z,98.72
2023-04-15T02:40:50.581Z,100.00
2023-04-15T02:43:17.865Z,100.00
2023-04-15T02:45:46.434Z,100.00
2023-04-15T02:48:13.542Z,100.00
2023-04-15T02:50:41.176Z,100.00
2023-04-15T02:53:08.188Z,100.00
2023-04-15T02:55:35.212Z,100.00
2023-04-15T02:58:02.218Z,100.00
2023-04-15T03:00:29.160Z,100.00
2023-04-15T03:03:02.653Z,100.00
2023-04-15T03:05:29.775Z,100.00
2023-04-15T03:07:56.703Z,100.00
2023-04-15T03:10:23.653Z,100.00
2023-04-15T03:12:50.618Z,100.00
2023-04-15T03:15:17.657Z,100.00
2023-04-15T03:17:44.658Z,100.00
2023-04-15T03:20:11.704Z,100.00
2023-04-15T03:22:38.629Z,100.00
2023-04-15T03:25:05.948Z,100.00
2023-04-15T03:27:32.884Z,100.00
2023-04-15T03:29:59.779Z,100.00
2023-04-15T03:32:27.488Z,100.00
2023-04-15T03:34:54.412Z,100.00
2023-04-15T03:37:21.306Z,100.00
2023-04-15T03:39:48.199Z,100.00
2023-04-15T03:42:15.115Z,100.00
2023-04-15T03:44:42.494Z,100.00
2023-04-15T03:47:09.407Z,100.00
2023-04-15T03:49:37.154Z,100.00
2023-04-15T03:52:04.124Z,100.00
2023-04-15T03:54:31.241Z,100.00
2023-04-15T03:56:58.145Z,100.00
2023-04-15T03:59:25.106Z,100.00
2023-04-15T04:01:52.257Z,100.00
2023-04-15T04:04:19.330Z,100.00
2023-04-15T04:06:46.391Z,100.00
2023-04-15T04:09:13.262Z,100.00
2023-04-15T04:11:40.166Z,100.00
2023-04-15T04:14:07.492Z,100.00
2023-04-15T04:16:34.481Z,100.00
2023-04-15T04:19:02.180Z,100.00
2023-04-15T04:21:29.615Z,100.00
2023-04-15T04:23:56.992Z,100.00
2023-04-15T04:26:23.928Z,100.00
2023-04-15T04:28:50.953Z,100.00
2023-04-15T04:31:17.914Z,100.00
2023-04-15T04:33:44.801Z,100.00
2023-04-15T04:36:11.838Z,100.00
2023-04-15T04:38:38.753Z,100.00
2023-04-15T04:41:06.159Z,100.00
2023-04-15T04:43:33.029Z,100.00
2023-04-15T04:45:59.987Z,100.00
2023-04-15T04:48:27.363Z,100.00
2023-04-15T04:50:54.469Z,100.00
2023-04-15T04:53:21.386Z,100.00
2023-04-15T04:55:48.306Z,100.00
2023-04-15T04:58:15.225Z,100.00
2023-04-15T05:00:42.314Z,100.00
2023-04-15T05:03:09.498Z,100.00
2023-04-15T05:05:39.599Z,100.00
2023-04-15T05:08:06.705Z,100.00
2023-04-15T05:10:33.740Z,100.00
2023-04-15T05:13:00.670Z,100.00
2023-04-15T05:15:27.560Z,100.00
2023-04-15T05:17:54.720Z,100.00
2023-04-15T05:20:22.027Z,98.06
2023-04-15T05:22:48.964Z,98.31
2023-04-15T05:25:16.612Z,96.91
2023-04-15T05:27:43.551Z,97.01
2023-04-15T05:30:12.785Z,95.93
2023-04-15T05:32:41.358Z,96.33
2023-04-15T05:35:08.783Z,96.80
2023-04-15T05:37:36.454Z,96.76
2023-04-15T05:40:04.652Z,94.49
2023-04-15T05:42:31.648Z,93.56
2023-04-15T05:44:58.590Z,95.01
2023-04-15T05:47:25.510Z,92.12
2023-04-15T05:49:52.452Z,86.33
2023-04-15T05:52:19.350Z,84.86
2023-04-15T05:54:46.824Z,83.75
2023-04-15T05:57:13.710Z,83.01
2023-04-15T05:59:42.362Z,82.78
2023-04-15T06:02:10.373Z,84.52
2023-04-15T06:04:37.478Z,83.20
2023-04-15T06:07:04.415Z,81.61
2023-04-15T06:09:31.384Z,82.63
2023-04-15T06:11:59.267Z,79.27
2023-04-15T06:14:26.282Z,76.43
2023-04-15T06:16:53.187Z,76.27
2023-04-15T06:19:20.662Z,75.22
2023-04-15T06:21:47.651Z,71.65
2023-04-15T06:24:14.628Z,73.06
2023-04-15T06:26:41.783Z,74.77
2023-04-15T06:29:08.631Z,74.33
2023-04-15T06:31:35.524Z,75.44
2023-04-15T06:34:02.554Z,72.32
2023-04-15T06:36:29.489Z,75.16
2023-04-15T06:38:57.299Z,73.58
2023-04-15T06:41:24.515Z,77.06
2023-04-15T06:43:51.727Z,76.10
2023-04-15T06:46:18.760Z,71.47
2023-04-15T06:48:45.800Z,69.04
2023-04-15T06:51:12.912Z,69.20
2023-04-15T06:53:42.172Z,67.64
2023-04-15T06:56:09.921Z,69.63
2023-04-15T06:58:36.882Z,68.92
2023-04-15T07:01:04.720Z,68.34
2023-04-15T07:03:32.938Z,70.25
2023-04-15T07:06:00.120Z,72.46
2023-04-15T07:08:27.030Z,71.08
2023-04-15T07:10:54.417Z,69.54
2023-04-15T07:13:21.348Z,72.09
2023-04-15T07:15:48.204Z,70.44
2023-04-15T07:18:15.094Z,66.75
2023-04-15T07:20:42.011Z,65.86
2023-04-15T07:23:09.004Z,67.02
2023-04-15T07:25:35.888Z,67.34
2023-04-15T07:28:02.886Z,68.49
2023-04-15T07:30:29.816Z,67.96
2023-04-15T07:32:58.982Z,66.09
2023-04-15T07:35:26.827Z,66.51
2023-04-15T07:37:53.687Z,65.88
2023-04-15T07:40:20.620Z,63.15
2023-04-15T07:42:49.619Z,62.84
2023-04-15T07:45:17.181Z,63.88
2023-04-15T07:47:44.101Z,61.31
2023-04-15T07:50:11.665Z,62.89
2023-04-15T07:52:41.645Z,65.74
2023-04-15T07:55:09.364Z,62.21
2023-04-15T07:57:37.085Z,59.84
2023-04-15T08:00:06.009Z,57.53
2023-04-15T08:02:33.029Z,53.57
2023-04-15T08:05:00.261Z,54.90
2023-04-15T08:07:27.618Z,56.00
2023-04-15T08:09:54.596Z,54.77
2023-04-15T08:12:21.908Z,54.32
2023-04-15T08:14:51.396Z,54.09
2023-04-15T08:17:18.351Z,56.82
2023-04-15T08:19:45.219Z,56.25
2023-04-15T08:22:17.712Z,55.58
2023-04-15T08:24:45.938Z,54.05
2023-04-15T08:27:12.939Z,53.87
2023-04-15T08:29:40.901Z,54.84
2023-04-15T08:32:08.020Z,53.84
2023-04-15T08:34:35.216Z,51.33
2023-04-15T08:37:02.102Z,50.63
2023-04-15T08:39:29.028Z,51.90
2023-04-15T08:42:03.899Z,48.97
2023-04-15T08:44:34.129Z,48.05
2023-04-15T08:47:03.126Z,51.21
2023-04-15T08:49:30.883Z,48.83
2023-04-15T08:52:01.769Z,50.40
2023-04-15T08:54:29.238Z,48.99
2023-04-15T08:56:58.757Z,47.13
2023-04-15T08:59:26.042Z,47.25
2023-04-15T09:01:53.793Z,48.05
2023-04-15T09:04:21.221Z,49.61
2023-04-15T09:06:48.149Z,49.16
2023-04-15T09:09:15.096Z,47.29
2023-04-15T09:11:42.885Z,47.91
2023-04-15T09:14:09.835Z,48.01
2023-04-15T09:17:03.760Z,45.67
2023-04-15T09:19:33.682Z,47.03
2023-04-15T09:22:00.744Z,48.09
2023-04-15T09:24:38.886Z,47.56
2023-04-15T09:27:06.667Z,46.79
2023-04-15T09:29:33.928Z,48.44
2023-04-15T09:32:11.579Z,45.27
2023-04-15T09:34:38.716Z,44.96
2023-04-15T09:37:07.586Z,47.84
2023-04-15T09:40:00.915Z,51.50
2023-04-15T09:42:28.247Z,48.37
2023-04-15T09:44:55.361Z,52.35
2023-04-15T09:47:29.696Z,50.96
2023-04-15T09:49:58.136Z,52.93
2023-04-15T09:52:25.229Z,52.73
2023-04-15T09:54:57.479Z,55.94
2023-04-15T09:57:24.692Z,53.95
2023-04-15T09:59:52.306Z,53.04
2023-04-15T10:02:23.401Z,53.92
2023-04-15T10:04:52.063Z,53.53
2023-04-15T10:07:22.886Z,55.01
2023-04-15T10:09:50.193Z,53.63
2023-04-15T10:12:21.090Z,52.10
2023-04-15T10:14:59.061Z,53.63
2023-04-15T10:17:31.244Z,58.97
2023-04-15T10:20:01.940Z,56.19
2023-04-15T10:22:29.836Z,53.43
2023-04-15T10:24:57.610Z,53.65
2023-04-15T10:27:24.964Z,51.66
2023-04-15T10:29:52.063Z,54.99
2023-04-15T10:32:21.974Z,54.29
2023-04-15T10:34:52.458Z,52.07
2023-04-15T10:37:35.215Z,51.03
2023-04-15T10:40:03.177Z,50.49
2023-04-15T10:42:35.686Z,50.06
2023-04-15T10:45:02.711Z,49.92
2023-04-15T10:47:29.645Z,50.19
2023-04-15T10:50:01.381Z,47.48
2023-04-15T10:52:29.595Z,48.98
2023-04-15T10:55:04.754Z,49.83
2023-04-15T10:57:42.541Z,50.97
2023-04-15T11:00:09.549Z,53.11
2023-04-15T11:02:45.196Z,53.31
2023-04-15T11:05:14.336Z,53.39
2023-04-15T11:07:49.286Z,51.92
2023-04-15T11:10:22.051Z,53.03
2023-04-15T11:12:53.198Z,53.05
2023-04-15T11:15:39.253Z,51.27
2023-04-15T11:18:26.542Z,51.90
2023-04-15T11:20:57.552Z,58.15
2023-04-15T11:23:32.910Z,52.07
2023-04-15T11:26:01.713Z,55.22
2023-04-15T11:28:30.760Z,53.57
2023-04-15T11:30:58.952Z,52.07
2023-04-15T11:33:26.238Z,51.79
2023-04-15T11:35:55.202Z,49.97
2023-04-15T11:38:22.660Z,54.73
2023-04-15T11:40:51.911Z,53.72
2023-04-15T11:43:21.363Z,54.08
2023-04-15T11:45:54.515Z,52.38
2023-04-15T11:48:25.092Z,53.69
2023-04-15T11:51:02.955Z,53.44
2023-04-15T11:53:49.355Z,53.71
2023-04-15T11:56:21.415Z,53.53
2023-04-15T11:58:51.005Z,51.84
2023-04-15T12:01:18.109Z,53.32
2023-04-15T12:03:52.409Z,52.19
2023-04-15T12:06:21.636Z,52.59
2023-04-15T12:09:06.989Z,54.77
2023-04-15T12:11:39.879Z,53.94
2023-04-15T12:14:13.520Z,52.80
2023-04-15T12:16:48.271Z,51.77
2023-04-15T12:19:25.571Z,48.77
2023-04-15T12:22:03.614Z,48.46
2023-04-15T12:24:36.146Z,49.03
2023-04-15T12:27:07.042Z,49.91
2023-04-15T12:29:35.785Z,50.92
2023-04-15T12:32:08.599Z,48.82
2023-04-15T12:34:39.675Z,49.23
2023-04-15T12:37:11.752Z,49.10
2023-04-15T12:39:41.389Z,48.93
2023-04-15T12:42:09.742Z,49.93
2023-04-15T12:44:38.085Z,48.36
2023-04-15T12:47:05.701Z,50.32
2023-04-15T12:49:33.806Z,50.12
2023-04-15T12:52:02.775Z,50.34
2023-04-15T12:54:31.228Z,50.10
2023-04-15T12:56:59.380Z,50.23
2023-04-15T12:59:26.456Z,51.09
2023-04-15T13:01:54.133Z,53.88
2023-04-15T13:04:22.497Z,48.95
2023-04-15T13:06:49.869Z,48.83
2023-04-15T13:09:17.009Z,48.57
2023-04-15T13:11:44.415Z,50.58
2023-04-15T13:14:14.113Z,47.95
2023-04-15T13:16:41.700Z,49.90
2023-04-15T13:19:08.919Z,48.66
2023-04-15T13:21:36.554Z,49.07
2023-04-15T13:24:04.420Z,48.90
2023-04-15T13:26:32.161Z,50.04
2023-04-15T13:28:59.384Z,49.05
2023-04-15T13:31:26.466Z,50.74
2023-04-15T13:33:53.604Z,51.02
2023-04-15T13:36:20.794Z,52.20
2023-04-15T13:38:50.468Z,53.50
2023-04-15T13:41:18.224Z,52.32
2023-04-15T13:43:45.170Z,49.80
2023-04-15T13:46:12.233Z,49.98
2023-04-15T13:48:39.259Z,50.98
2023-04-15T13:51:06.321Z,50.20
2023-04-15T13:53:38.280Z,49.43
2023-04-15T13:56:10.522Z,47.46
2023-04-15T13:58:38.430Z,49.18
2023-04-15T14:01:07.317Z,47.83
2023-04-15T14:03:37.388Z,48.86
2023-04-15T14:06:06.299Z,48.92
2023-04-15T14:08:33.768Z,48.59
2023-04-15T14:11:00.838Z,49.52
2023-04-15T14:13:27.730Z,49.83
2023-04-15T14:15:55.343Z,50.38
2023-04-15T14:18:22.332Z,50.57
2023-04-15T14:20:49.310Z,52.72
2023-04-15T14:23:16.389Z,52.38
2023-04-15T14:25:44.124Z,52.37
2023-04-15T14:28:11.971Z,53.00
2023-04-15T14:30:38.949Z,52.41
2023-04-15T14:33:05.958Z,52.15
2023-04-15T14:35:33.117Z,52.54
2023-04-15T14:38:00.062Z,52.92
2023-04-15T14:40:27.019Z,54.63
2023-04-15T14:42:53.912Z,54.09
2023-04-15T14:45:21.046Z,51.98
2023-04-15T14:47:48.232Z,52.76
2023-04-15T14:50:15.137Z,52.49
2023-04-15T14:52:42.076Z,53.44
2023-04-15T14:55:11.371Z,52.91
2023-04-15T14:57:39.334Z,52.34
2023-04-15T15:00:07.707Z,51.67
2023-04-15T15:02:39.606Z,50.72
2023-04-15T15:05:08.557Z,51.11
2023-04-15T15:07:37.488Z,52.84
2023-04-15T15:10:04.855Z,53.72
2023-04-15T15:12:32.704Z,54.31
2023-04-15T15:15:00.514Z,54.92
2023-04-15T15:17:28.646Z,53.90
2023-04-15T15:19:57.114Z,54.78
2023-04-15T15:22:24.169Z,52.26
2023-04-15T15:24:51.079Z,55.40
2023-04-15T15:27:18.046Z,52.33
2023-04-15T15:29:45.000Z,52.66
2023-04-15T15:32:12.009Z,52.71
2023-04-15T15:34:38.945Z,50.50
2023-04-15T15:37:06.548Z,52.11
2023-04-15T15:39:34.363Z,52.11
2023-04-15T15:42:03.336Z,53.30
2023-04-15T15:44:30.253Z,51.16
2023-04-15T15:46:57.268Z,51.89
2023-04-15T15:49:26.088Z,52.24
2023-04-15T15:51:52.949Z,53.52
2023-04-15T15:54:19.892Z,55.12
2023-04-15T15:56:46.804Z,54.15
2023-04-15T15:59:13.713Z,55.24
2023-04-15T16:01:52.539Z,55.32
2023-04-15T16:04:19.771Z,56.54
2023-04-15T16:06:47.082Z,58.17
2023-04-15T16:09:14.152Z,61.07
2023-04-15T16:11:41.836Z,59.78
2023-04-15T16:14:08.750Z,59.60
2023-04-15T16:16:35.813Z,59.72
2023-04-15T16:19:03.077Z,58.55
2023-04-15T16:21:31.414Z,58.54
2023-04-15T16:23:58.428Z,57.44
2023-04-15T16:26:25.360Z,58.11
2023-04-15T16:28:52.273Z,55.28
2023-04-15T16:31:19.177Z,57.58
2023-04-15T16:33:46.169Z,57.46
2023-04-15T16:36:13.029Z,56.96
2023-04-15T16:38:39.940Z,58.07
2023-04-15T16:41:06.932Z,58.22
2023-04-15T16:43:33.890Z,59.19
2023-04-15T16:46:00.785Z,59.43
2023-04-15T16:48:27.791Z,61.10
2023-04-15T16:50:54.741Z,61.40
2023-04-15T16:53:21.648Z,62.35
2023-04-15T16:55:48.583Z,65.06
2023-04-15T16:58:15.657Z,67.80
2023-04-15T17:00:42.671Z,73.40
2023-04-15T17:03:09.727Z,80.03
2023-04-15T17:05:36.790Z,82.94
2023-04-15T17:08:05.235Z,85.25
2023-04-15T17:10:32.201Z,87.15
2023-04-15T17:12:59.904Z,88.92
2023-04-15T17:15:27.664Z,90.35
2023-04-15T17:17:54.825Z,91.27
2023-04-15T17:20:21.817Z,91.96
2023-04-15T17:22:49.612Z,92.38
2023-04-15T17:25:17.797Z,93.19
2023-04-15T17:27:45.941Z,93.00
2023-04-15T17:30:12.916Z,93.78
2023-04-15T17:32:41.800Z,93.71
2023-04-15T17:35:11.455Z,92.81
2023-04-15T17:37:40.861Z,93.10
2023-04-15T17:40:10.504Z,92.25
2023-04-15T17:42:38.389Z,93.16
2023-04-15T17:45:06.024Z,92.59
2023-04-15T17:47:32.986Z,92.70
2023-04-15T17:50:02.116Z,92.02
2023-04-15T17:52:31.374Z,91.52
2023-04-15T17:55:00.660Z,92.01
2023-04-15T17:57:29.212Z,92.99
2023-04-15T17:59:57.129Z,92.97
2023-04-15T18:02:25.274Z,93.28
2023-04-15T18:04:54.480Z,92.73
2023-04-15T18:07:23.166Z,92.51
2023-04-15T18:09:51.677Z,93.02
2023-04-15T18:12:20.646Z,92.23
2023-04-15T18:14:49.958Z,93.87
2023-04-15T18:17:19.097Z,93.77
2023-04-15T18:19:46.869Z,98.47
2023-04-15T18:22:15.795Z,100.00
2023-04-15T18:24:44.581Z,100.00
2023-04-15T18:27:12.460Z,100.00
2023-04-15T18:29:41.707Z,100.00
2023-04-15T18:32:11.646Z,100.00
2023-04-15T18:34:39.359Z,100.00
2023-04-15T18:37:08.173Z,100.00
2023-04-15T18:39:35.585Z,100.00
2023-04-15T18:42:04.775Z,100.00
2023-04-15T18:44:33.155Z,100.00
2023-04-15T18:47:03.329Z,100.00
2023-04-15T18:49:34.437Z,100.00
2023-04-15T18:52:03.568Z,100.00
2023-04-15T18:54:32.048Z,100.00
2023-04-15T18:57:00.635Z,100.00
2023-04-15T18:59:30.173Z,100.00
2023-04-15T19:02:03.777Z,100.00
2023-04-15T19:04:31.351Z,100.00
2023-04-15T19:07:00.656Z,100.00
2023-04-15T19:09:31.137Z,100.00
2023-04-15T19:11:59.648Z,100.00
2023-04-15T19:14:27.704Z,100.00
2023-04-15T19:16:55.666Z,100.00
2023-04-15T19:19:22.682Z,100.00
2023-04-15T19:21:50.479Z,100.00
2023-04-15T19:24:18.369Z,100.00
2023-04-15T19:26:48.629Z,100.00
2023-04-15T19:29:15.618Z,100.00
2023-04-15T19:31:42.488Z,100.00
2023-04-15T19:34:09.475Z,100.00
2023-04-15T19:37:25.898Z,100.00
2023-04-15T19:39:54.956Z,100.00
2023-04-15T19:42:21.885Z,100.00
2023-04-15T19:44:48.872Z,100.00
2023-04-15T19:47:16.155Z,100.00
2023-04-15T19:49:43.112Z,100.00
2023-04-15T19:52:10.033Z,100.00
2023-04-15T19:54:37.205Z,100.00
2023-04-15T19:57:04.205Z,100.00
2023-04-15T19:59:31.212Z,100.00
2023-04-15T20:01:58.220Z,100.00
2023-04-15T20:04:25.329Z,100.00
2023-04-15T20:06:52.260Z,100.00
2023-04-15T20:09:19.138Z,100.00
2023-04-15T20:12:46.905Z,100.00
2023-04-15T20:14:35.878Z,100.00
2023-04-15T20:17:02.801Z,100.00
2023-04-15T20:19:29.674Z,100.00
2023-04-15T20:21:56.618Z,100.00
2023-04-15T20:24:24.530Z,100.00
2023-04-15T20:26:51.460Z,100.00
2023-04-15T20:29:18.360Z,100.00
2023-04-15T20:31:45.421Z,100.00
2023-04-15T20:34:12.368Z,100.00
2023-04-15T20:36:39.353Z,100.00
2023-04-15T20:39:06.394Z,100.00
2023-04-15T20:41:33.494Z,100.00
2023-04-15T20:44:00.609Z,100.00
2023-04-15T20:46:27.945Z,100.00
2023-04-15T20:48:55.829Z,100.00
2023-04-15T20:51:22.810Z,100.00
2023-04-15T20:53:50.057Z,100.00
2023-04-15T20:56:16.984Z,100.00
2023-04-15T20:58:43.876Z,100.00
2023-04-15T21:01:10.788Z,100.00
2023-04-15T21:03:37.844Z,100.00
2023-04-15T21:06:04.932Z,100.00
2023-04-15T21:08:31.908Z,100.00
2023-04-15T21:10:58.963Z,100.00
2023-04-15T21:13:25.916Z,100.00
2023-04-15T21:15:54.491Z,100.00
2023-04-15T21:18:21.986Z,100.00
2023-04-15T21:21:02.812Z,100.00
2023-04-15T21:23:30.502Z,100.00
2023-04-15T21:25:57.789Z,100.00
2023-04-15T21:28:24.871Z,100.00
2023-04-15T21:30:51.764Z,100.00
2023-04-15T21:33:20.521Z,100.00
2023-04-15T21:35:47.472Z,100.00
2023-04-15T21:38:14.864Z,100.00
2023-04-15T21:40:41.838Z,100.00
2023-04-15T21:43:08.756Z,100.00
2023-04-15T21:45:36.208Z,100.00
2023-04-15T21:48:08.002Z,100.00
2023-04-15T21:50:38.590Z,100.00
2023-04-15T21:53:08.377Z,100.00
2023-04-15T21:55:36.301Z,100.00
2023-04-15T21:58:03.183Z,100.00
2023-04-15T22:00:30.124Z,100.00
2023-04-15T22:02:57.238Z,100.00
2023-04-15T22:05:25.295Z,100.00
2023-04-15T22:07:52.297Z,100.00
2023-04-15T22:10:20.990Z,100.00
2023-04-15T22:12:47.916Z,100.00
2023-04-15T22:15:17.238Z,100.00
2023-04-15T22:17:44.150Z,100.00
2023-04-15T22:20:11.222Z,100.00
2023-04-15T22:22:43.787Z,100.00
2023-04-15T22:25:12.189Z,100.00
2023-04-15T22:27:39.122Z,100.00
2023-04-15T22:30:06.779Z,100.00
2023-04-15T22:32:33.741Z,100.00
2023-04-15T22:35:01.641Z,100.00
2023-04-15T22:37:31.308Z,100.00
2023-04-15T22:39:58.250Z,100.00
2023-04-15T22:42:25.527Z,100.00
2023-04-15T22:44:52.510Z,100.00
2023-04-15T22:47:20.016Z,100.00
2023-04-15T22:49:46.894Z,100.00
2023-04-15T22:52:23.459Z,100.00
2023-04-15T22:54:56.791Z,100.00
2023-04-15T22:57:23.844Z,100.00
2023-04-15T22:59:51.128Z,100.00
2023-04-15T23:02:18.160Z,100.00
2023-04-15T23:04:45.649Z,100.00
2023-04-15T23:07:12.651Z,100.00
2023-04-15T23:09:40.106Z,100.00
2023-04-15T23:12:07.464Z,100.00
2023-04-15T23:14:34.388Z,100.00
2023-04-15T23:17:01.277Z,100.00
2023-04-15T23:19:28.193Z,100.00
2023-04-15T23:21:55.145Z,100.00
2023-04-15T23:24:22.104Z,100.00
2023-04-15T23:26:49.010Z,100.00
2023-04-15T23:29:15.930Z,100.00
2023-04-15T23:31:42.861Z,100.00
2023-04-15T23:34:09.912Z,100.00
2023-04-15T23:36:37.096Z,100.00
2023-04-15T23:39:06.487Z,100.00
2023-04-15T23:41:33.408Z,100.00
2023-04-15T23:44:00.297Z,100.00
2023-04-15T23:46:27.459Z,100.00
2023-04-15T23:48:54.511Z,100.00
2023-04-15T23:51:21.373Z,100.00
2023-04-15T23:53:49.583Z,100.00
2023-04-15T23:56:16.480Z,100.00
2023-04-15T23:58:43.367Z,100.00
